Map

Track Data

SID SEASON NUMBER BASIN SUBBASIN NAME ISO_TIME NATURE LAT LON WMO_WIND WMO_PRES WMO_AGENCY TRACK_TYPE DIST2LAND LANDFALL IFLAG USA_AGENCY USA_ATCF_ID USA_LAT USA_LON USA_RECORD USA_STATUS USA_WIND USA_PRES USA_SSHS USA_R34_NE USA_R34_SE USA_R34_SW USA_R34_NW USA_R50_NE USA_R50_SE USA_R50_SW USA_R50_NW USA_R64_NE USA_R64_SE USA_R64_SW USA_R64_NW USA_POCI USA_ROCI USA_RMW USA_EYE TOKYO_LAT TOKYO_LON TOKYO_GRADE TOKYO_WIND TOKYO_PRES TOKYO_R50_DIR TOKYO_R50_LONG TOKYO_R50_SHORT TOKYO_R30_DIR TOKYO_R30_LONG TOKYO_R30_SHORT TOKYO_LAND CMA_LAT CMA_LON CMA_CAT CMA_WIND CMA_PRES HKO_LAT HKO_LON HKO_CAT HKO_WIND HKO_PRES NEWDELHI_LAT NEWDELHI_LON NEWDELHI_GRADE NEWDELHI_WIND NEWDELHI_PRES NEWDELHI_CI NEWDELHI_DP NEWDELHI_POCI REUNION_LAT REUNION_LON REUNION_TYPE REUNION_WIND REUNION_PRES REUNION_TNUM REUNION_CI REUNION_RMW REUNION_R34_NE REUNION_R34_SE REUNION_R34_SW REUNION_R34_NW REUNION_R50_NE REUNION_R50_SE REUNION_R50_SW REUNION_R50_NW REUNION_R64_NE REUNION_R64_SE REUNION_R64_SW REUNION_R64_NW BOM_LAT BOM_LON BOM_TYPE BOM_WIND BOM_PRES BOM_TNUM BOM_CI BOM_RMW BOM_R34_NE BOM_R34_SE BOM_R34_SW BOM_R34_NW BOM_R50_NE BOM_R50_SE BOM_R50_SW BOM_R50_NW BOM_R64_NE BOM_R64_SE BOM_R64_SW BOM_R64_NW BOM_ROCI BOM_POCI BOM_EYE BOM_POS_METHOD BOM_PRES_METHOD NADI_LAT NADI_LON NADI_CAT NADI_WIND NADI_PRES WELLINGTON_LAT WELLINGTON_LON WELLINGTON_WIND WELLINGTON_PRES DS824_LAT DS824_LON DS824_STAGE DS824_WIND DS824_PRES TD9636_LAT TD9636_LON TD9636_STAGE TD9636_WIND TD9636_PRES TD9635_LAT TD9635_LON TD9635_WIND TD9635_PRES TD9635_ROCI NEUMANN_LAT NEUMANN_LON NEUMANN_CLASS NEUMANN_WIND NEUMANN_PRES MLC_LAT MLC_LON MLC_CLASS MLC_WIND MLC_PRES USA_GUST BOM_GUST BOM_GUST_PER REUNION_GUST REUNION_GUST_PER USA_SEAHGT USA_SEARAD_NE USA_SEARAD_SE USA_SEARAD_SW USA_SEARAD_NW STORM_SPEED STORM_DIR
1892292N14094 1892 54 NI BB NOT_NAMED 1892-10-18 00:00:00 TS 13.7000 93.9000 main 241 239 _________O____ -1 13.7000 93.9000 TC 34 11 281
1892292N14094 1892 54 NI BB NOT_NAMED 1892-10-18 03:00:00 TS 13.8037 93.3685 main 248 248 _________PO___ -1 13.8555 93.1028 TC 36 13.7000 93.9000 2 13 281
1892292N14094 1892 54 NI BB NOT_NAMED 1892-10-18 06:00:00 TS 13.9315 92.6170 main 287 286 _________OP___ -1 14.0000 92.3000 TC 39 13.8287 93.0925 2 15 280
1892292N14094 1892 54 NI BB NOT_NAMED 1892-10-18 09:00:00 TS 14.0620 91.8331 main 334 334 _________PP___ -1 14.1348 91.4923 TC 42 13.9648 92.2876 2 15 281
1892292N14094 1892 54 NI BB NOT_NAMED 1892-10-18 12:00:00 TS 14.2093 91.0945 main 389 389 _________OP___ -1 14.3000 90.7000 TC 45 14.1185 91.4890 2 15 284
1892292N14094 1892 54 NI BB NOT_NAMED 1892-10-18 15:00:00 TS 14.4211 90.3250 main 455 455 _________PO___ -1 14.5421 89.9500 TC 45 14.3000 90.7000 3 16 287
1892292N14094 1892 54 NI BB NOT_NAMED 1892-10-18 18:00:00 TS 14.6573 89.5610 main 514 514 _________OP___ -1 14.8000 89.2000 TC 45 14.5146 89.9221 3 16 287
1892292N14094 1892 54 NI BB NOT_NAMED 1892-10-18 21:00:00 TS 14.8817 88.7788 main 591 547 _________PP___ -1 15.0148 88.4074 TC 45 14.7487 89.1502 3 16 286
1892292N14094 1892 54 NI BB NOT_NAMED 1892-10-19 00:00:00 TS 15.0917 87.9891 main 547 470 _________OP___ -1 15.2000 87.6000 TC 45 14.9834 88.3782 3 16 285
1892292N14094 1892 54 NI BB NOT_NAMED 1892-10-19 03:00:00 TS 15.2786 87.1999 main 470 406 _________PO___ -1 15.3572 86.7998 TC 45 15.2000 87.6000 3 16 283
1892292N14094 1892 54 NI BB NOT_NAMED 1892-10-19 06:00:00 TS 15.4354 86.4053 main 406 346 _________OP___ -1 15.5000 86.0000 TC 45 15.3707 86.8105 3 16 281
1892292N14094 1892 54 NI BB NOT_NAMED 1892-10-19 09:00:00 TS 15.5855 85.6069 main 339 272 _________PP___ -1 15.6497 85.1999 TC 45 15.5213 86.0140 3 16 281
1892292N14094 1892 54 NI BB NOT_NAMED 1892-10-19 12:00:00 TS 15.7306 84.8053 main 272 197 _________OP___ -1 15.8000 84.4000 TC 45 15.6613 85.2105 3 16 281
1892292N14094 1892 54 NI BB NOT_NAMED 1892-10-19 15:00:00 TS 15.8748 84.0037 main 197 117 _________PO___ -1 15.9496 83.6074 TC 41 15.8000 84.4000 3 16 281
1892292N14094 1892 54 NI BB NOT_NAMED 1892-10-19 18:00:00 TS 16.0313 83.1649 main 117 39 _________OP___ -1 16.1000 82.8000 TC 37 15.9626 83.5298 3 17 281
1892292N14094 1892 54 NI BB NOT_NAMED 1892-10-19 21:00:00 TS 16.1943 82.2829 main 39 0 _________PP___ -1 16.2653 81.9052 TC 33 16.1233 82.6607 3 17 281
1892292N14094 1892 54 NI BB NOT_NAMED 1892-10-20 00:00:00 TS 16.3361 81.4680 main 11 0 _________OP___ -1 16.4000 81.1000 TC 30 16.2722 81.8361 3 14 279
1892292N14094 1892 54 NI BB NOT_NAMED 1892-10-20 03:00:00 TS 16.4285 80.8236 main 0 0 _________PO___ -1 16.4569 80.5472 TC 30 16.4000 81.1000 1 11 278
1892292N14094 1892 54 NI BB NOT_NAMED 1892-10-20 06:00:00 TS 16.4954 80.3009 main 0 0 _________OP___ -1 16.5000 80.1000 TC 30 16.4908 80.5019 1 10 279
1892292N14094 1892 54 NI BB NOT_NAMED 1892-10-20 09:00:00 TS 16.5776 79.7971 main 0 0 _________PP___ -1 16.5924 79.6000 TC 30 16.5629 79.9943 1 10 280
1892292N14094 1892 54 NI BB NOT_NAMED 1892-10-20 12:00:00 TS 16.6643 79.3198 main 0 0 _________OP___ -1 16.7000 79.1000 TC 30 16.6287 79.5395 1 9 281
1892292N14094 1892 54 NI BB NOT_NAMED 1892-10-20 15:00:00 TS 16.7500 78.8462 main 0 0 _________PO___ -1 16.7999 78.5925 TC 30 16.7000 79.1000 1 9 281
1892292N14094 1892 54 NI BB NOT_NAMED 1892-10-20 18:00:00 TS 16.8348 78.4115 main 0 0 _________OP___ -1 16.9000 78.1000 TC 30 16.7858 78.6452 1 9 282
1892292N14094 1892 54 NI AS NOT_NAMED 1892-10-20 21:00:00 TS 16.9306 77.9600 main 0 0 _________PP___ -1 17.0002 77.6401 TC 30 16.8842 78.1732 1 9 283
1892292N14094 1892 54 NI AS NOT_NAMED 1892-10-21 00:00:00 TS 17.0269 77.5264 main 0 0 _________OP___ -1 17.1000 77.2000 TC 30 16.9904 77.6897 1 7 283
1892292N14094 1892 54 NI AS NOT_NAMED 1892-10-21 03:00:00 NR 17.1000 77.2000 main 0 __________O___ -1 TC 17.1000 77.2000 1 6 283

About IBTrACS Database

This database is a web-friendly format of International Best Track Archive for Climate Stewardship (IBTrACS), a global best track data archive curated by NOAA dating back to 1842.

Updated: 2021-12-03